Time;durP1;ratioP1;P1;durP2;ratioP2;P2;SDS_P1;SDS_P2;PMS_P1;PMS_P2;Temp;Humidity;BMP_temperature;BMP_pressure;BME280_temperature;BME280_humidity;BME280_pressure;Samples;Min_cycle;Max_cycle;Signal;HPM_P1;HPM_P2
2024/01/15 00:02:12;;;;;;;50.70;19.70;;;-2.30;99.90;;;;;;4950310;28;20035;-60
2024/01/15 00:04:41;;;;;;;49.13;18.55;;;-2.40;99.90;;;;;;4946709;28;20727;-61
2024/01/15 00:07:08;;;;;;;54.55;19.85;;;-2.40;99.90;;;;;;4931919;29;20048;-60
2024/01/15 00:09:33;;;;;;;57.42;21.42;;;-2.50;99.90;;;;;;4944658;28;20035;-60
2024/01/15 00:11:59;;;;;;;54.92;20.30;;;-2.50;99.90;;;;;;4945829;28;20123;-61
2024/01/15 00:14:25;;;;;;;59.92;20.83;;;-2.50;99.90;;;;;;4947376;28;20039;-62
2024/01/15 00:16:51;;;;;;;48.65;19.30;;;-2.60;99.90;;;;;;4949576;28;20028;-61
2024/01/15 00:19:17;;;;;;;51.67;19.88;;;-2.70;99.90;;;;;;4949358;28;20388;-61
2024/01/15 00:21:44;;;;;;;57.80;21.33;;;-2.60;99.90;;;;;;4951464;28;20853;-61
2024/01/15 00:24:09;;;;;;;59.42;19.20;;;-2.70;99.90;;;;;;4957367;28;20760;-61
2024/01/15 00:26:35;;;;;;;50.88;18.52;;;-2.60;99.90;;;;;;4943027;28;20026;-61
2024/01/15 00:29:01;;;;;;;46.80;19.00;;;-2.60;99.90;;;;;;4935057;28;20031;-62
2024/01/15 00:31:26;;;;;;;44.72;18.10;;;-2.60;99.90;;;;;;4953885;28;20479;-61
2024/01/15 00:33:52;;;;;;;63.58;20.60;;;-2.70;99.90;;;;;;4952012;28;20031;-64
2024/01/15 00:36:18;;;;;;;56.53;21.45;;;-2.70;99.90;;;;;;4951848;28;20027;-62
2024/01/15 00:38:47;;;;;;;55.10;20.17;;;-2.70;99.90;;;;;;4949823;28;20046;-62
2024/01/15 00:41:13;;;;;;;56.80;21.63;;;-2.70;99.90;;;;;;4945429;28;20066;-62
2024/01/15 00:43:39;;;;;;;57.22;22.25;;;-2.70;99.90;;;;;;4937440;29;20514;-62
2024/01/15 00:46:05;;;;;;;64.40;21.60;;;-2.70;99.90;;;;;;4931462;29;20055;-61
2024/01/15 00:48:31;;;;;;;69.90;22.70;;;-2.70;99.90;;;;;;4945352;28;20042;-62
2024/01/15 00:50:57;;;;;;;75.22;24.65;;;-2.70;99.90;;;;;;4950430;28;20563;-61
2024/01/15 00:53:23;;;;;;;66.90;21.77;;;-2.70;99.90;;;;;;4952480;28;20110;-62
2024/01/15 00:55:48;;;;;;;77.30;26.02;;;-2.70;99.90;;;;;;4951548;28;20599;-62
2024/01/15 00:58:14;;;;;;;71.22;25.17;;;-2.70;99.90;;;;;;4948505;28;20111;-62
2024/01/15 01:00:40;;;;;;;65.93;21.65;;;-2.70;99.90;;;;;;4949013;28;21015;-61
2024/01/15 01:03:06;;;;;;;72.22;23.17;;;-2.70;99.90;;;;;;4933836;28;20024;-61
2024/01/15 01:05:33;;;;;;;64.03;21.65;;;-2.70;99.90;;;;;;4927942;29;20042;-62
2024/01/15 01:07:58;;;;;;;74.97;22.85;;;-2.70;99.90;;;;;;4932859;28;20113;-62
2024/01/15 01:10:24;;;;;;;66.70;22.75;;;-2.70;99.90;;;;;;4953018;28;20075;-62
2024/01/15 01:12:50;;;;;;;74.78;22.45;;;-2.70;99.90;;;;;;4952308;28;20091;-61
2024/01/15 01:15:15;;;;;;;64.88;22.30;;;-2.80;99.90;;;;;;4949973;28;20110;-61
2024/01/15 01:17:41;;;;;;;70.38;24.60;;;-2.80;99.90;;;;;;4950138;28;20040;-62
2024/01/15 01:20:09;;;;;;;70.45;22.05;;;-2.80;99.90;;;;;;4946882;28;20388;-61
2024/01/15 01:22:34;;;;;;;76.97;22.70;;;-2.80;99.90;;;;;;4944987;28;20070;-64
2024/01/15 01:25:00;;;;;;;72.22;24.50;;;-2.80;99.90;;;;;;4952075;28;20415;-61
2024/01/15 01:27:26;;;;;;;70.07;22.67;;;-2.80;99.90;;;;;;4950852;28;20122;-61
2024/01/15 01:29:51;;;;;;;77.30;24.30;;;-2.80;99.90;;;;;;4946481;28;20038;-62
2024/01/15 01:32:17;;;;;;;65.38;23.27;;;-2.80;99.90;;;;;;4949352;28;20185;-62
2024/01/15 01:34:43;;;;;;;72.80;22.70;;;-2.80;99.90;;;;;;4946556;28;20107;-62
2024/01/15 01:37:09;;;;;;;73.45;24.88;;;-2.80;99.90;;;;;;4950678;28;20027;-62
2024/01/15 01:39:35;;;;;;;69.97;22.60;;;-2.80;99.90;;;;;;4951105;28;20035;-62
2024/01/15 01:42:01;;;;;;;72.05;24.13;;;-2.80;99.90;;;;;;4949931;28;20027;-61
2024/01/15 01:44:26;;;;;;;66.93;21.10;;;-2.80;99.90;;;;;;4951518;28;20027;-62
2024/01/15 01:46:53;;;;;;;61.90;20.83;;;-2.80;99.90;;;;;;4948582;28;20030;-61
2024/01/15 01:49:18;;;;;;;59.08;20.98;;;-2.80;99.90;;;;;;4946147;28;20688;-61
2024/01/15 01:51:44;;;;;;;76.20;22.33;;;-2.80;99.90;;;;;;4944539;28;20039;-62
2024/01/15 01:54:13;;;;;;;62.78;21.80;;;-2.80;99.90;;;;;;4948576;28;20039;-61
2024/01/15 01:56:40;;;;;;;61.88;20.75;;;-2.80;99.90;;;;;;4947408;28;20042;-61
2024/01/15 01:59:07;;;;;;;56.33;20.80;;;-2.80;99.90;;;;;;4952989;28;20050;-61
2024/01/15 02:01:33;;;;;;;53.78;18.10;;;-2.80;99.90;;;;;;4951705;28;20019;-61
2024/01/15 02:04:00;;;;;;;57.05;19.75;;;-2.80;99.90;;;;;;4952587;28;20050;-61
2024/01/15 02:06:25;;;;;;;52.28;18.67;;;-2.70;99.90;;;;;;4949028;28;20409;-62
2024/01/15 02:08:51;;;;;;;61.10;20.02;;;-2.70;99.90;;;;;;4958057;28;20062;-61
2024/01/15 02:11:17;;;;;;;53.58;19.45;;;-2.70;99.90;;;;;;4952274;28;20102;-63
2024/01/15 02:13:43;;;;;;;50.60;17.33;;;-2.70;99.90;;;;;;4951635;28;20114;-62
2024/01/15 02:16:08;;;;;;;58.10;20.67;;;-2.70;99.90;;;;;;4951929;28;20566;-63
2024/01/15 02:18:41;;;;;;;54.67;17.73;;;-2.70;99.90;;;;;;4947962;28;20032;-63
2024/01/15 02:21:07;;;;;;;54.45;18.85;;;-2.60;99.90;;;;;;4949433;28;20038;-62
2024/01/15 02:23:33;;;;;;;56.22;20.17;;;-2.60;99.90;;;;;;4953417;28;20027;-61
2024/01/15 02:25:58;;;;;;;58.17;18.02;;;-2.70;99.90;;;;;;4951231;28;20457;-63
2024/01/15 02:28:24;;;;;;;53.78;18.98;;;-2.70;99.90;;;;;;4951313;28;20042;-61
2024/01/15 02:30:49;;;;;;;53.42;18.55;;;-2.60;99.90;;;;;;4952957;28;20098;-61
2024/01/15 02:33:15;;;;;;;53.05;20.92;;;-2.60;99.90;;;;;;4951625;28;20245;-61
2024/01/15 02:35:41;;;;;;;50.17;19.13;;;-2.70;99.90;;;;;;4949236;28;20491;-63
2024/01/15 02:38:07;;;;;;;64.45;21.55;;;-2.70;99.90;;;;;;4950053;28;20031;-61
2024/01/15 02:40:33;;;;;;;59.05;18.83;;;-2.70;99.90;;;;;;4952188;28;20015;-62
2024/01/15 02:42:59;;;;;;;67.68;22.80;;;-2.70;99.90;;;;;;4951675;28;20078;-63
2024/01/15 02:45:25;;;;;;;64.28;21.88;;;-2.70;99.90;;;;;;4948987;28;20047;-61
2024/01/15 02:47:50;;;;;;;57.00;19.60;;;-2.70;99.90;;;;;;4946970;28;20071;-61
2024/01/15 02:50:16;;;;;;;58.95;20.75;;;-2.70;99.90;;;;;;4948591;28;20036;-61
2024/01/15 02:52:42;;;;;;;65.68;20.55;;;-2.70;99.90;;;;;;4951361;28;20075;-62
2024/01/15 02:55:08;;;;;;;63.47;20.80;;;-2.70;99.90;;;;;;4949572;28;20023;-62
2024/01/15 02:57:34;;;;;;;65.05;21.05;;;-2.70;99.90;;;;;;4949423;28;20059;-61
2024/01/15 03:00:00;;;;;;;52.42;21.02;;;-2.70;99.90;;;;;;4948934;28;20153;-61
2024/01/15 03:02:26;;;;;;;50.00;18.42;;;-2.70;99.90;;;;;;4947295;28;20032;-62
2024/01/15 03:04:51;;;;;;;52.35;19.55;;;-2.70;99.90;;;;;;4948169;28;20023;-62
2024/01/15 03:07:17;;;;;;;54.95;19.33;;;-2.60;99.90;;;;;;4948179;28;20019;-61
2024/01/15 03:09:43;;;;;;;47.83;17.27;;;-2.60;99.90;;;;;;4950158;28;20047;-63
2024/01/15 03:12:08;;;;;;;59.83;19.17;;;-2.60;99.90;;;;;;4952456;28;20036;-61
2024/01/15 03:14:35;;;;;;;54.40;20.77;;;-2.70;99.90;;;;;;4950859;28;20038;-62
2024/01/15 03:17:01;;;;;;;60.05;20.55;;;-2.70;99.90;;;;;;4951010;28;20034;-61
2024/01/15 03:19:27;;;;;;;54.53;20.10;;;-2.70;99.90;;;;;;4956673;28;20027;-62
2024/01/15 03:21:52;;;;;;;62.30;20.98;;;-2.70;99.90;;;;;;4952958;28;20023;-64
2024/01/15 03:24:18;;;;;;;56.35;19.98;;;-2.60;99.90;;;;;;4950400;28;20035;-62
2024/01/15 03:26:43;;;;;;;55.88;19.45;;;-2.60;99.90;;;;;;4955612;28;20035;-61
2024/01/15 03:29:09;;;;;;;51.10;19.00;;;-2.60;99.90;;;;;;4953274;28;20111;-62
2024/01/15 03:31:35;;;;;;;57.67;19.77;;;-2.60;99.90;;;;;;4953138;28;20030;-62
2024/01/15 03:34:00;;;;;;;48.25;19.38;;;-2.60;99.90;;;;;;4925211;28;20028;-63
2024/01/15 03:36:26;;;;;;;62.78;20.52;;;-2.60;99.90;;;;;;4932172;29;20034;-60
2024/01/15 03:38:52;;;;;;;55.55;20.95;;;-2.60;99.90;;;;;;4942589;28;20519;-59
2024/01/15 03:41:17;;;;;;;52.80;19.30;;;-2.60;99.90;;;;;;4954759;28;20031;-63
2024/01/15 03:43:43;;;;;;;52.50;17.83;;;-2.50;99.90;;;;;;4951997;28;20059;-63
2024/01/15 03:46:08;;;;;;;50.50;19.13;;;-2.50;99.90;;;;;;4950639;28;20805;-63
2024/01/15 03:48:34;;;;;;;48.50;18.90;;;-2.50;99.90;;;;;;4951127;28;20054;-62
2024/01/15 03:51:00;;;;;;;49.28;20.02;;;-2.50;99.90;;;;;;4951653;28;20126;-62
2024/01/15 03:53:26;;;;;;;51.33;18.58;;;-2.50;99.90;;;;;;4954270;28;20031;-61
2024/01/15 03:55:52;;;;;;;47.60;17.40;;;-2.50;99.90;;;;;;4956120;28;20031;-62
2024/01/15 03:58:17;;;;;;;58.38;18.98;;;-2.40;99.90;;;;;;4955427;28;20551;-63
2024/01/15 04:00:43;;;;;;;51.20;18.58;;;-2.40;99.90;;;;;;4955695;28;20031;-63
2024/01/15 04:03:09;;;;;;;51.63;18.63;;;-2.40;99.90;;;;;;4952790;28;20035;-62
2024/01/15 04:05:35;;;;;;;52.92;17.92;;;-2.40;99.90;;;;;;4952142;28;20034;-61
2024/01/15 04:08:00;;;;;;;48.90;17.25;;;-2.40;99.90;;;;;;4954527;28;20041;-61
2024/01/15 04:10:26;;;;;;;41.22;16.83;;;-2.40;99.90;;;;;;4957121;28;20568;-63
2024/01/15 04:12:51;;;;;;;40.85;17.13;;;-2.40;99.90;;;;;;4953689;28;20035;-63
2024/01/15 04:15:17;;;;;;;55.45;18.20;;;-2.40;99.90;;;;;;4955347;28;20035;-62
2024/01/15 04:17:43;;;;;;;48.30;17.65;;;-2.40;99.90;;;;;;4949810;28;20043;-62
2024/01/15 04:20:09;;;;;;;49.85;16.92;;;-2.40;99.90;;;;;;4950305;28;20035;-62
2024/01/15 04:22:35;;;;;;;50.25;16.60;;;-2.40;99.90;;;;;;4949441;28;20015;-61
2024/01/15 04:25:01;;;;;;;46.92;16.90;;;-2.40;99.90;;;;;;4945575;29;20036;-61
2024/01/15 04:27:27;;;;;;;46.33;17.13;;;-2.40;99.90;;;;;;4952591;28;20054;-62
2024/01/15 04:29:52;;;;;;;42.83;16.42;;;-2.40;99.90;;;;;;4950911;28;20118;-63
2024/01/15 04:32:18;;;;;;;40.67;16.88;;;-2.40;99.90;;;;;;4950722;28;20059;-63
2024/01/15 04:34:44;;;;;;;40.97;17.02;;;-2.40;99.90;;;;;;4949970;28;20042;-63
2024/01/15 04:37:10;;;;;;;47.90;16.67;;;-2.40;99.90;;;;;;4952183;28;20559;-61
2024/01/15 04:39:35;;;;;;;38.50;16.27;;;-2.40;99.90;;;;;;4949553;28;20462;-64
2024/01/15 04:42:01;;;;;;;47.78;17.85;;;-2.40;99.90;;;;;;4952797;28;20506;-61
2024/01/15 04:44:27;;;;;;;45.55;17.45;;;-2.40;99.90;;;;;;4953075;28;20085;-61
2024/01/15 04:46:52;;;;;;;39.83;15.02;;;-2.40;99.90;;;;;;4952164;28;20391;-63
2024/01/15 04:49:18;;;;;;;39.05;17.27;;;-2.30;99.90;;;;;;4947139;28;20030;-63
2024/01/15 04:51:44;;;;;;;42.15;16.80;;;-2.40;99.90;;;;;;4952862;28;20063;-61
2024/01/15 04:54:09;;;;;;;38.78;16.38;;;-2.30;99.90;;;;;;4951890;28;20031;-61
2024/01/15 04:56:35;;;;;;;45.67;17.55;;;-2.30;99.90;;;;;;4953736;28;20063;-64
2024/01/15 04:59:01;;;;;;;41.83;18.67;;;-2.40;99.90;;;;;;4953769;28;20042;-61
2024/01/15 05:01:31;;;;;;;42.20;17.55;;;-2.30;99.90;;;;;;4953244;28;20023;-63
2024/01/15 05:03:56;;;;;;;45.95;16.45;;;-2.30;99.90;;;;;;4949190;28;20031;-62
2024/01/15 05:06:22;;;;;;;43.00;17.25;;;-2.30;99.90;;;;;;4951411;28;20042;-63
2024/01/15 05:08:48;;;;;;;44.33;17.85;;;-2.30;99.90;;;;;;4955262;28;20036;-62
2024/01/15 05:11:13;;;;;;;42.45;16.65;;;-2.30;99.90;;;;;;4952409;28;20113;-63
2024/01/15 05:13:39;;;;;;;46.08;16.75;;;-2.30;99.90;;;;;;4951685;28;20044;-61
2024/01/15 05:16:04;;;;;;;45.67;17.17;;;-2.30;99.90;;;;;;4950155;28;20506;-63
2024/01/15 05:18:30;;;;;;;42.30;17.83;;;-2.30;99.90;;;;;;4948362;28;20095;-63
2024/01/15 05:20:55;;;;;;;40.35;17.90;;;-2.30;99.90;;;;;;4949050;28;20529;-64
2024/01/15 05:23:21;;;;;;;42.03;16.95;;;-2.30;99.90;;;;;;4952114;28;20034;-64
2024/01/15 05:25:47;;;;;;;42.70;16.42;;;-2.30;99.90;;;;;;4950182;28;20019;-63
2024/01/15 05:28:13;;;;;;;43.30;15.65;;;-2.30;99.90;;;;;;4953762;28;20039;-61
2024/01/15 05:30:39;;;;;;;42.67;16.13;;;-2.30;99.90;;;;;;4948476;28;20027;-61
2024/01/15 05:33:05;;;;;;;42.08;16.17;;;-2.30;99.90;;;;;;4950564;28;20051;-62
2024/01/15 05:35:30;;;;;;;42.22;15.80;;;-2.30;99.90;;;;;;4956647;28;20491;-62
2024/01/15 05:37:56;;;;;;;46.03;17.40;;;-2.30;99.90;;;;;;4953602;28;20031;-62
2024/01/15 05:40:21;;;;;;;41.17;17.02;;;-2.20;99.90;;;;;;4951714;28;20585;-62
2024/01/15 05:42:47;;;;;;;42.03;15.55;;;-2.30;99.90;;;;;;4950807;28;20736;-62
2024/01/15 05:45:13;;;;;;;44.88;17.20;;;-2.30;99.90;;;;;;4951170;28;20123;-61
2024/01/15 05:47:38;;;;;;;42.33;16.45;;;-2.30;99.90;;;;;;4950745;28;20042;-63
2024/01/15 05:50:04;;;;;;;40.78;14.52;;;-2.20;99.90;;;;;;4951078;28;20031;-61
2024/01/15 05:52:30;;;;;;;39.55;17.23;;;-2.30;99.90;;;;;;4949768;28;20484;-61
2024/01/15 05:54:56;;;;;;;43.00;16.23;;;-2.30;99.90;;;;;;4947969;28;20027;-62
2024/01/15 05:57:22;;;;;;;34.78;15.13;;;-2.20;99.90;;;;;;4951075;28;20043;-62
2024/01/15 05:59:48;;;;;;;36.65;14.65;;;-2.30;99.90;;;;;;4947165;28;20581;-62
2024/01/15 06:02:14;;;;;;;36.63;16.40;;;-2.20;99.90;;;;;;4946311;28;20027;-61
2024/01/15 06:04:40;;;;;;;39.10;15.65;;;-2.20;99.90;;;;;;4951020;28;20074;-61
2024/01/15 06:07:05;;;;;;;32.63;13.75;;;-2.20;99.90;;;;;;4950347;28;20039;-61
2024/01/15 06:09:31;;;;;;;30.23;14.68;;;-2.20;99.90;;;;;;4951541;28;20116;-60
2024/01/15 06:11:57;;;;;;;32.53;14.85;;;-2.20;99.90;;;;;;4954724;28;20046;-61
2024/01/15 06:14:22;;;;;;;34.53;14.75;;;-2.10;99.90;;;;;;4951603;28;20027;-60
2024/01/15 06:16:49;;;;;;;36.05;13.38;;;-2.10;99.90;;;;;;4948489;28;20419;-62
2024/01/15 06:19:14;;;;;;;30.17;13.48;;;-2.10;99.90;;;;;;4947817;28;20067;-61
2024/01/15 06:21:40;;;;;;;28.35;12.73;;;-2.10;99.90;;;;;;4930575;28;20492;-61
2024/01/15 06:24:06;;;;;;;33.00;13.88;;;-2.00;99.90;;;;;;4942249;28;20538;-62
2024/01/15 06:26:32;;;;;;;27.42;12.68;;;-2.00;99.90;;;;;;4951025;28;20027;-62
2024/01/15 06:28:57;;;;;;;27.02;11.93;;;-2.00;99.90;;;;;;4952590;28;20050;-63
2024/01/15 06:31:23;;;;;;;24.05;12.15;;;-2.00;99.90;;;;;;4953169;28;20483;-61
2024/01/15 06:33:48;;;;;;;22.60;11.65;;;-1.90;99.90;;;;;;4946058;28;20031;-64
2024/01/15 06:36:16;;;;;;;23.08;11.55;;;-1.90;99.90;;;;;;4952247;28;20031;-62
2024/01/15 06:38:43;;;;;;;24.45;12.70;;;-1.90;99.90;;;;;;4955427;28;20027;-61
2024/01/15 06:41:09;;;;;;;25.20;12.27;;;-1.90;99.90;;;;;;4955005;28;20024;-60
2024/01/15 06:43:35;;;;;;;22.48;11.77;;;-1.90;99.90;;;;;;4957048;28;20472;-61
2024/01/15 06:46:00;;;;;;;24.17;12.02;;;-1.90;99.90;;;;;;4955287;28;20054;-61
2024/01/15 06:48:26;;;;;;;18.58;11.35;;;-1.90;99.90;;;;;;4955315;28;20567;-62
2024/01/15 06:50:52;;;;;;;23.45;10.82;;;-1.80;99.90;;;;;;4944099;28;20036;-62
2024/01/15 06:53:18;;;;;;;25.80;13.38;;;-1.80;99.90;;;;;;4939354;28;20542;-62
2024/01/15 06:55:43;;;;;;;33.33;15.38;;;-1.80;99.90;;;;;;4951790;28;20039;-64
2024/01/15 06:58:09;;;;;;;27.60;12.52;;;-1.80;99.90;;;;;;4955266;28;20160;-64
2024/01/15 07:00:34;;;;;;;24.67;11.70;;;-1.80;99.90;;;;;;4952109;28;20563;-61
2024/01/15 07:03:00;;;;;;;111.22;38.20;;;-1.80;99.90;;;;;;4953322;28;20069;-62
2024/01/15 07:05:26;;;;;;;27.10;12.48;;;-1.80;99.90;;;;;;4956452;28;20059;-62
2024/01/15 07:07:51;;;;;;;38.08;14.93;;;-1.80;99.90;;;;;;4953449;28;20031;-62
2024/01/15 07:10:17;;;;;;;30.65;11.77;;;-1.80;99.90;;;;;;4953428;28;20114;-63
2024/01/15 07:12:43;;;;;;;21.90;10.57;;;-1.80;99.90;;;;;;4949234;28;20047;-60
2024/01/15 07:15:10;;;;;;;26.45;14.25;;;-1.70;99.90;;;;;;4949146;28;20054;-62
2024/01/15 07:17:39;;;;;;;25.25;12.00;;;-1.70;99.90;;;;;;4951771;28;20033;-61
2024/01/15 07:20:08;;;;;;;29.63;12.93;;;-1.70;99.90;;;;;;4952571;28;20062;-61
2024/01/15 07:22:35;;;;;;;25.05;12.82;;;-1.70;99.90;;;;;;4954167;28;20047;-62
2024/01/15 07:25:01;;;;;;;27.05;12.20;;;-1.70;99.90;;;;;;4954326;28;20517;-61
2024/01/15 07:27:27;;;;;;;25.63;12.57;;;-1.70;99.90;;;;;;4953668;28;20126;-63
2024/01/15 07:29:52;;;;;;;23.83;11.77;;;-1.70;99.90;;;;;;4954054;28;20090;-62
2024/01/15 07:32:18;;;;;;;26.52;13.60;;;-1.70;99.90;;;;;;4953817;28;20059;-61
2024/01/15 07:34:43;;;;;;;30.42;13.43;;;-1.70;99.90;;;;;;4954343;28;20414;-61
2024/01/15 07:37:09;;;;;;;26.13;12.35;;;-1.70;99.90;;;;;;4953438;28;20078;-61
2024/01/15 07:39:35;;;;;;;27.15;13.88;;;-1.70;99.90;;;;;;4953570;28;20113;-61
2024/01/15 07:42:01;;;;;;;33.92;14.10;;;-1.70;99.90;;;;;;4952535;28;20028;-61
2024/01/15 07:44:27;;;;;;;29.35;13.55;;;-1.70;99.90;;;;;;4954663;28;20028;-61
2024/01/15 07:46:52;;;;;;;23.42;13.02;;;-1.60;99.90;;;;;;4955764;28;20046;-62
2024/01/15 07:49:18;;;;;;;33.47;14.25;;;-1.60;99.90;;;;;;4935634;28;20042;-64
2024/01/15 07:51:44;;;;;;;37.03;14.75;;;-1.70;99.90;;;;;;4950854;28;20043;-63
2024/01/15 07:54:11;;;;;;;28.92;13.60;;;-1.70;99.90;;;;;;4951043;28;20544;-61
2024/01/15 07:56:57;;;;;;;33.30;13.77;;;-1.60;99.90;;;;;;4952895;28;20126;-61
2024/01/15 07:59:22;;;;;;;30.00;13.73;;;-1.60;99.90;;;;;;4953111;28;20199;-61
2024/01/15 08:01:48;;;;;;;31.85;14.25;;;-1.60;99.90;;;;;;4954831;28;20075;-62
2024/01/15 08:04:14;;;;;;;28.40;13.30;;;-1.60;99.90;;;;;;4969774;28;20058;-62
2024/01/15 08:06:39;;;;;;;23.58;13.00;;;-1.60;99.90;;;;;;4956572;28;20513;-62
2024/01/15 08:09:05;;;;;;;29.25;13.57;;;-1.50;99.90;;;;;;4954522;28;20602;-63
2024/01/15 08:11:31;;;;;;;22.38;12.95;;;-1.50;99.90;;;;;;4953109;28;20050;-62
2024/01/15 08:13:56;;;;;;;27.70;13.00;;;-1.50;99.90;;;;;;4966067;28;20485;-64
2024/01/15 08:16:24;;;;;;;35.17;16.17;;;-1.50;99.90;;;;;;4955488;28;20016;-62
2024/01/15 08:18:50;;;;;;;26.00;11.70;;;-1.40;99.90;;;;;;4955292;28;20039;-62
2024/01/15 08:21:15;;;;;;;26.73;11.75;;;-1.40;99.90;;;;;;4952172;28;20042;-63
2024/01/15 08:23:41;;;;;;;25.63;12.65;;;-1.30;99.90;;;;;;4945410;28;20047;-62
2024/01/15 08:26:07;;;;;;;25.45;13.65;;;-1.30;99.90;;;;;;4951953;28;20054;-63
2024/01/15 08:28:33;;;;;;;22.90;12.13;;;-1.30;99.90;;;;;;4953149;28;20710;-62
2024/01/15 08:30:58;;;;;;;29.83;12.25;;;-1.20;99.90;;;;;;4951117;28;20035;-63
2024/01/15 08:33:24;;;;;;;28.02;12.02;;;-1.20;99.90;;;;;;4966221;28;20083;-64
2024/01/15 08:35:49;;;;;;;21.63;12.55;;;-1.20;99.90;;;;;;4949641;28;20062;-65
2024/01/15 08:38:15;;;;;;;19.80;10.65;;;-1.20;99.90;;;;;;4948357;28;20139;-61
2024/01/15 08:40:41;;;;;;;30.80;12.57;;;-1.20;99.90;;;;;;4951425;28;20391;-61
2024/01/15 08:43:06;;;;;;;26.85;12.38;;;-1.10;99.90;;;;;;4953189;28;20030;-63
2024/01/15 08:45:32;;;;;;;22.75;11.52;;;-1.10;99.90;;;;;;4950383;28;20035;-64
2024/01/15 08:47:58;;;;;;;21.55;9.90;;;-1.10;99.90;;;;;;4952190;28;20055;-63
2024/01/15 08:50:24;;;;;;;25.95;12.90;;;-1.00;99.90;;;;;;4949041;28;20058;-62
2024/01/15 08:52:49;;;;;;;18.33;11.15;;;-1.00;99.90;;;;;;4949134;28;20031;-63
2024/01/15 08:55:15;;;;;;;25.02;12.65;;;-1.00;99.90;;;;;;4953227;28;20078;-62
2024/01/15 08:57:40;;;;;;;24.05;11.98;;;-1.00;99.90;;;;;;4951673;28;20043;-62
2024/01/15 09:00:09;;;;;;;20.40;10.38;;;-1.10;99.90;;;;;;4951503;28;20039;-63
2024/01/15 09:02:35;;;;;;;19.52;10.40;;;-1.10;99.90;;;;;;4950249;28;20098;-61
2024/01/15 09:05:01;;;;;;;24.80;12.13;;;-1.10;99.90;;;;;;4951092;28;20459;-62
2024/01/15 09:07:27;;;;;;;28.08;12.07;;;-1.00;99.90;;;;;;4954520;28;20023;-63
2024/01/15 09:09:53;;;;;;;18.45;11.65;;;-1.10;99.90;;;;;;4954428;28;20039;-62
2024/01/15 09:12:20;;;;;;;21.67;10.48;;;-1.00;99.90;;;;;;4954893;28;20082;-63
2024/01/15 09:14:47;;;;;;;26.08;12.00;;;-1.00;99.90;;;;;;4949581;28;20031;-61
2024/01/15 09:17:12;;;;;;;21.13;10.95;;;-1.00;99.90;;;;;;4948965;28;20039;-61
2024/01/15 09:19:41;;;;;;;23.40;11.52;;;-0.90;99.90;;;;;;4949481;28;20031;-61
2024/01/15 09:22:07;;;;;;;18.05;11.23;;;-0.90;99.90;;;;;;4950876;28;20055;-62
2024/01/15 09:24:33;;;;;;;21.25;10.57;;;-0.80;99.90;;;;;;4948607;28;20031;-61
2024/01/15 09:26:58;;;;;;;21.98;10.60;;;-0.70;99.90;;;;;;4949852;28;20031;-62
2024/01/15 09:29:24;;;;;;;15.55;10.30;;;-0.70;99.90;;;;;;4952142;28;20027;-61
2024/01/15 09:31:50;;;;;;;22.25;11.13;;;-0.70;99.90;;;;;;4954512;28;20023;-63
2024/01/15 09:34:16;;;;;;;23.80;11.13;;;-0.70;99.90;;;;;;4956953;28;20051;-62
2024/01/15 09:36:42;;;;;;;22.67;10.73;;;-0.70;99.90;;;;;;4956530;28;20050;-63
2024/01/15 09:39:08;;;;;;;20.08;11.10;;;-0.70;99.90;;;;;;4955735;28;20032;-64
2024/01/15 09:41:38;;;;;;;17.52;8.75;;;-0.70;99.90;;;;;;4955033;28;20106;-62
2024/01/15 09:44:04;;;;;;;21.30;11.35;;;-0.60;99.90;;;;;;4955603;28;20712;-62
2024/01/15 09:46:32;;;;;;;21.42;10.18;;;-0.60;99.90;;;;;;4941948;28;20023;-61
2024/01/15 09:48:58;;;;;;;24.42;11.70;;;-0.50;99.90;;;;;;4948192;28;20067;-63
2024/01/15 09:51:24;;;;;;;18.60;10.13;;;-0.50;99.90;;;;;;4942723;28;20038;-62
2024/01/15 09:53:51;;;;;;;21.98;10.23;;;-0.50;99.90;;;;;;4946336;28;20039;-64
2024/01/15 09:56:17;;;;;;;22.15;10.38;;;-0.50;99.90;;;;;;4950302;28;20146;-63
2024/01/15 09:58:43;;;;;;;20.25;9.93;;;-0.40;99.90;;;;;;4949298;28;20542;-62
2024/01/15 10:01:09;;;;;;;17.83;10.02;;;-0.50;99.90;;;;;;4946879;28;20111;-63
2024/01/15 10:03:35;;;;;;;19.08;9.32;;;-0.50;99.90;;;;;;4947548;28;20027;-61
2024/01/15 10:06:02;;;;;;;15.23;9.30;;;-0.50;99.90;;;;;;4951153;28;20376;-62
2024/01/15 10:08:28;;;;;;;15.85;9.52;;;-0.60;99.90;;;;;;4952409;28;20031;-62
2024/01/15 10:10:53;;;;;;;18.67;9.85;;;-0.60;99.90;;;;;;4950476;28;20053;-62
2024/01/15 10:13:20;;;;;;;16.75;9.20;;;-0.60;99.90;;;;;;4950263;28;20028;-61
2024/01/15 10:15:49;;;;;;;16.45;9.00;;;-0.70;99.90;;;;;;4950626;28;20070;-61
2024/01/15 10:18:15;;;;;;;15.07;9.02;;;-0.70;99.90;;;;;;4949334;28;20043;-63
2024/01/15 10:20:42;;;;;;;14.98;9.73;;;-0.70;99.90;;;;;;4952675;28;20522;-62
2024/01/15 10:23:08;;;;;;;17.58;9.85;;;-0.70;99.90;;;;;;4949013;28;20038;-61
2024/01/15 10:25:35;;;;;;;15.20;9.10;;;-0.70;99.90;;;;;;4951265;28;20019;-62
2024/01/15 10:28:05;;;;;;;18.17;10.00;;;-0.70;99.90;;;;;;4949510;28;20034;-63
2024/01/15 10:30:32;;;;;;;23.90;9.18;;;-0.70;99.90;;;;;;4947902;28;20039;-61
2024/01/15 10:33:02;;;;;;;18.90;10.10;;;-0.70;99.90;;;;;;4953175;28;20039;-62
2024/01/15 10:35:33;;;;;;;17.02;9.02;;;-0.70;99.90;;;;;;4951368;28;20042;-62
2024/01/15 10:37:59;;;;;;;15.23;9.57;;;-0.70;99.90;;;;;;4969033;28;20122;-61
2024/01/15 10:40:25;;;;;;;21.08;8.68;;;-0.70;99.90;;;;;;4956938;28;20936;-63
2024/01/15 10:42:51;;;;;;;16.42;8.35;;;-0.70;99.90;;;;;;4945289;28;20114;-61
2024/01/15 10:45:17;;;;;;;16.58;8.82;;;-0.80;99.90;;;;;;4960965;28;20059;-62
2024/01/15 10:47:43;;;;;;;15.05;9.50;;;-0.70;99.90;;;;;;4956150;28;20035;-62
2024/01/15 10:50:10;;;;;;;16.33;8.30;;;-0.70;99.90;;;;;;4958311;28;20625;-62
2024/01/15 10:52:37;;;;;;;18.38;9.73;;;-0.80;99.90;;;;;;4945941;28;20118;-62
2024/01/15 10:55:04;;;;;;;18.08;9.18;;;-0.70;99.90;;;;;;4944800;28;20083;-61
2024/01/15 10:57:30;;;;;;;13.95;8.75;;;-0.80;99.90;;;;;;4949448;28;20046;-61
2024/01/15 10:59:56;;;;;;;18.20;10.05;;;-0.70;99.90;;;;;;4950544;28;20118;-62
2024/01/15 11:02:22;;;;;;;13.13;9.18;;;-0.60;99.90;;;;;;4950969;28;20032;-62
2024/01/15 11:04:48;;;;;;;18.20;8.85;;;-0.60;99.90;;;;;;4953364;28;20102;-61
2024/01/15 11:07:14;;;;;;;16.48;8.45;;;-0.60;99.90;;;;;;4946844;28;20102;-62
2024/01/15 11:09:40;;;;;;;14.27;9.13;;;-0.60;99.90;;;;;;4952299;28;20034;-61
2024/01/15 11:12:11;;;;;;;14.13;9.18;;;-0.60;99.90;;;;;;4956749;28;20424;-61
2024/01/15 11:14:44;;;;;;;16.50;9.70;;;-0.60;99.90;;;;;;4950273;28;20041;-62
2024/01/15 11:17:10;;;;;;;16.58;9.82;;;-0.60;99.90;;;;;;4949172;28;20102;-62
2024/01/15 11:19:45;;;;;;;16.13;9.77;;;-0.50;99.90;;;;;;4945485;28;20095;-61
2024/01/15 11:22:31;;;;;;;14.15;9.43;;;-0.50;99.90;;;;;;4949659;28;20039;-61
2024/01/15 11:25:20;;;;;;;21.60;11.75;;;-0.50;99.90;;;;;;4947331;28;20456;-63
2024/01/15 11:27:51;;;;;;;17.23;10.40;;;-0.40;99.90;;;;;;4947364;28;20032;-62
2024/01/15 11:30:18;;;;;;;18.65;10.98;;;-0.30;99.90;;;;;;4955648;28;20159;-61
2024/01/15 11:32:44;;;;;;;20.67;10.60;;;-0.30;99.90;;;;;;4952493;28;20503;-63
2024/01/15 11:35:10;;;;;;;15.63;10.27;;;-0.30;99.90;;;;;;4953382;28;20695;-61
2024/01/15 11:37:51;;;;;;;17.67;9.80;;;-0.30;99.90;;;;;;4952722;28;20024;-61
2024/01/15 11:40:37;;;;;;;15.05;10.27;;;-0.30;99.90;;;;;;4952337;28;20047;-61
2024/01/15 11:43:04;;;;;;;17.58;10.52;;;-0.30;99.90;;;;;;4951776;28;20085;-64
2024/01/15 11:45:30;;;;;;;21.05;10.38;;;-0.30;99.90;;;;;;4950118;28;20035;-62
2024/01/15 11:48:18;;;;;;;17.25;10.30;;;-0.30;99.90;;;;;;4952786;28;20042;-62
2024/01/15 11:50:45;;;;;;;18.02;10.07;;;-0.30;99.90;;;;;;4951786;28;20036;-63
2024/01/15 11:53:34;;;;;;;23.88;10.40;;;-0.30;99.90;;;;;;4948608;28;20098;-61
2024/01/15 11:56:03;;;;;;;17.55;9.45;;;-0.20;99.90;;;;;;4950323;28;20039;-63
2024/01/15 11:58:29;;;;;;;16.83;10.20;;;-0.20;99.90;;;;;;4951537;28;20035;-61
2024/01/15 12:00:55;;;;;;;15.93;9.57;;;-0.20;99.90;;;;;;4950102;28;20039;-62
2024/01/15 12:03:22;;;;;;;19.05;10.68;;;-0.20;99.90;;;;;;4950930;28;20106;-62
2024/01/15 12:05:48;;;;;;;17.25;10.05;;;-0.20;99.90;;;;;;4952157;28;20031;-62
2024/01/15 12:08:13;;;;;;;21.10;9.77;;;-0.20;99.90;;;;;;4949734;28;20511;-61
2024/01/15 12:10:40;;;;;;;20.77;9.80;;;-0.20;99.90;;;;;;4960117;28;20023;-61
2024/01/15 12:13:14;;;;;;;15.85;10.00;;;-0.30;99.90;;;;;;4950665;28;20131;-60
2024/01/15 12:15:41;;;;;;;15.30;9.68;;;-0.30;99.90;;;;;;4948916;28;20512;-62
2024/01/15 12:18:08;;;;;;;16.25;9.43;;;-0.30;99.90;;;;;;4948319;28;20028;-61
2024/01/15 12:20:34;;;;;;;16.70;9.82;;;-0.30;99.90;;;;;;4949820;28;20046;-61
2024/01/15 12:23:03;;;;;;;15.45;10.02;;;-0.30;99.90;;;;;;4949315;28;20117;-62
2024/01/15 12:25:30;;;;;;;18.30;10.52;;;-0.40;99.90;;;;;;4950968;29;20016;-63